createdAt,value
2018-06-23T00:02:17.530Z,75.10
2018-06-23T00:04:44.931Z,75.00
2018-06-23T00:07:12.227Z,74.80
2018-06-23T00:09:39.559Z,75.30
2018-06-23T00:12:06.875Z,75.40
2018-06-23T00:14:34.253Z,75.00
2018-06-23T00:17:01.582Z,74.90
2018-06-23T00:19:28.879Z,75.00
2018-06-23T00:21:56.191Z,75.10
2018-06-23T00:24:23.513Z,75.10
2018-06-23T00:26:50.828Z,75.30
2018-06-23T00:29:18.169Z,75.20
2018-06-23T00:31:45.504Z,75.10
2018-06-23T00:34:12.762Z,75.20
2018-06-23T00:36:40.060Z,75.00
2018-06-23T00:39:07.724Z,74.70
2018-06-23T00:41:35.075Z,74.60
2018-06-23T00:44:02.417Z,74.50
2018-06-23T00:46:29.742Z,74.60
2018-06-23T00:48:57.047Z,74.50
2018-06-23T00:51:24.364Z,74.90
2018-06-23T00:53:51.667Z,75.20
2018-06-23T00:56:18.983Z,75.40
2018-06-23T00:58:57.962Z,75.80
2018-06-23T01:01:25.404Z,76.20
2018-06-23T01:06:20.170Z,76.80
2018-06-23T01:08:47.456Z,76.70
2018-06-23T01:11:14.791Z,76.40
2018-06-23T01:13:42.092Z,76.30
2018-06-23T01:16:09.398Z,76.20
2018-06-23T01:18:36.746Z,76.10
2018-06-23T01:21:04.088Z,76.60
2018-06-23T01:23:31.407Z,76.70
2018-06-23T01:25:58.798Z,76.40
2018-06-23T01:28:26.108Z,76.20
2018-06-23T01:30:53.435Z,76.20
2018-06-23T01:33:20.771Z,76.30
2018-06-23T01:35:48.090Z,76.20
2018-06-23T01:38:15.422Z,76.20
2018-06-23T01:40:42.738Z,76.10
2018-06-23T01:43:10.068Z,76.50
2018-06-23T01:45:37.511Z,76.30
2018-06-23T01:48:04.815Z,76.10
2018-06-23T01:50:32.124Z,75.90
2018-06-23T01:52:59.468Z,76.50
2018-06-23T01:55:26.797Z,77.60
2018-06-23T01:57:54.102Z,77.40
2018-06-23T02:00:21.434Z,76.90
2018-06-23T02:02:48.749Z,76.60
2018-06-23T02:05:16.101Z,77.10
2018-06-23T02:07:43.406Z,77.60
2018-06-23T02:10:10.726Z,77.60
2018-06-23T02:12:38.036Z,77.30
2018-06-23T02:15:05.340Z,77.00
2018-06-23T02:17:32.721Z,76.70
2018-06-23T02:20:00.130Z,77.60
2018-06-23T02:22:27.449Z,77.70
2018-06-23T02:24:54.745Z,77.40
2018-06-23T02:27:22.145Z,77.70
2018-06-23T02:29:49.430Z,77.80
2018-06-23T02:32:16.736Z,77.70
2018-06-23T02:34:44.042Z,77.10
2018-06-23T02:37:11.358Z,77.60
2018-06-23T02:39:38.662Z,77.60
2018-06-23T02:42:06.015Z,77.50
2018-06-23T02:44:33.340Z,77.80
2018-06-23T02:47:00.650Z,77.40
2018-06-23T02:49:28.002Z,77.80
2018-06-23T02:51:55.322Z,78.30
2018-06-23T02:54:22.659Z,78.00
2018-06-23T02:56:50.028Z,77.60
2018-06-23T02:59:17.362Z,77.60
2018-06-23T03:01:44.766Z,77.60
2018-06-23T03:04:12.093Z,77.40
2018-06-23T03:06:39.399Z,77.30
2018-06-23T03:09:06.710Z,77.30
2018-06-23T03:11:34.048Z,77.00
2018-06-23T03:14:01.642Z,76.90
2018-06-23T03:16:29.310Z,76.70
2018-06-23T03:18:56.641Z,76.70
2018-06-23T03:21:23.979Z,76.50
2018-06-23T03:23:51.291Z,76.80
2018-06-23T03:26:18.634Z,77.70
2018-06-23T03:28:45.960Z,78.20
2018-06-23T03:31:13.257Z,79.00
2018-06-23T03:33:40.580Z,79.50
2018-06-23T03:36:07.919Z,79.70
2018-06-23T03:38:35.255Z,80.00
2018-06-23T03:41:02.554Z,79.90
2018-06-23T03:43:29.893Z,79.40
2018-06-23T03:45:57.218Z,79.30
2018-06-23T03:48:24.530Z,79.00
2018-06-23T03:50:51.876Z,79.30
2018-06-23T03:55:46.492Z,79.10
2018-06-23T03:58:13.789Z,78.70
2018-06-23T04:00:41.115Z,78.70
2018-06-23T04:03:08.416Z,78.70
2018-06-23T04:05:35.756Z,78.50
2018-06-23T04:08:03.057Z,78.20
2018-06-23T04:10:30.375Z,78.20
2018-06-23T04:12:57.675Z,77.80
2018-06-23T04:15:24.994Z,77.30
2018-06-23T04:17:52.293Z,76.60
2018-06-23T04:20:19.606Z,76.20
2018-06-23T04:22:46.904Z,76.30
2018-06-23T04:25:14.180Z,76.30
2018-06-23T04:27:41.491Z,76.30
2018-06-23T04:32:35.946Z,75.70
2018-06-23T04:35:03.429Z,75.80
2018-06-23T04:37:30.741Z,75.60
2018-06-23T04:39:58.066Z,75.30
2018-06-23T04:42:25.379Z,75.10
2018-06-23T04:44:52.729Z,75.40
2018-06-23T04:47:20.070Z,75.70
2018-06-23T04:49:47.395Z,75.00
2018-06-23T04:52:14.708Z,74.70
2018-06-23T04:54:42.100Z,74.80
2018-06-23T04:57:09.431Z,75.10
2018-06-23T04:59:36.744Z,75.40
2018-06-23T05:02:04.062Z,75.60
2018-06-23T05:04:31.384Z,75.70
2018-06-23T05:06:58.716Z,76.00
2018-06-23T05:09:26.327Z,76.00
2018-06-23T05:11:53.658Z,76.10
2018-06-23T05:14:20.968Z,76.10
2018-06-23T05:16:48.294Z,75.90
2018-06-23T05:19:15.614Z,76.00
2018-06-23T05:21:42.913Z,76.10
2018-06-23T05:24:10.230Z,76.00
2018-06-23T05:26:37.561Z,75.60
2018-06-23T05:29:04.855Z,76.30
2018-06-23T05:31:32.260Z,76.50
2018-06-23T05:33:59.594Z,76.50
2018-06-23T05:36:26.922Z,76.50
2018-06-23T05:38:54.255Z,76.20
2018-06-23T05:41:21.637Z,76.90
2018-06-23T05:43:48.973Z,77.10
2018-06-23T05:46:16.304Z,77.00
2018-06-23T05:48:43.613Z,77.00
2018-06-23T05:51:10.965Z,77.00
2018-06-23T05:53:38.269Z,76.80
2018-06-23T05:58:32.770Z,75.80
2018-06-23T06:01:00.107Z,75.40
2018-06-23T06:03:27.507Z,75.40
2018-06-23T06:05:54.726Z,75.50
2018-06-23T06:08:22.025Z,75.20
2018-06-23T06:10:49.385Z,74.60
2018-06-23T06:13:16.719Z,73.70
2018-06-23T06:15:44.043Z,73.80
2018-06-23T06:18:11.327Z,73.90
2018-06-23T06:20:38.634Z,72.60
2018-06-23T06:23:05.939Z,71.60
2018-06-23T06:25:33.257Z,71.10
2018-06-23T06:28:00.617Z,70.80
2018-06-23T06:30:28.375Z,71.10
2018-06-23T06:32:55.682Z,71.30
2018-06-23T06:35:22.999Z,70.70
2018-06-23T06:37:50.333Z,70.10
2018-06-23T06:40:17.631Z,70.00
2018-06-23T06:42:44.958Z,70.20
2018-06-23T06:45:12.250Z,70.30
2018-06-23T06:47:39.574Z,70.40
2018-06-23T06:50:06.910Z,71.20
2018-06-23T06:52:34.317Z,71.00
2018-06-23T06:55:01.656Z,70.50
2018-06-23T06:57:29.034Z,69.50
2018-06-23T07:02:23.547Z,68.80
2018-06-23T07:04:50.836Z,70.20
2018-06-23T07:07:18.230Z,70.20
2018-06-23T07:09:45.543Z,69.30
2018-06-23T07:12:12.835Z,69.40
2018-06-23T07:14:40.130Z,68.80
2018-06-23T07:17:07.458Z,68.60
2018-06-23T07:19:34.774Z,67.90
2018-06-23T07:22:02.148Z,68.20
2018-06-23T07:24:29.557Z,68.30
2018-06-23T07:26:56.918Z,68.10
2018-06-23T07:29:24.238Z,68.50
2018-06-23T07:31:51.568Z,67.90
2018-06-23T07:34:18.932Z,67.50
2018-06-23T07:36:46.160Z,66.30
2018-06-23T07:39:13.579Z,65.60
2018-06-23T07:41:40.876Z,65.60
2018-06-23T07:44:08.246Z,64.60
2018-06-23T07:46:36.119Z,64.80
2018-06-23T07:49:03.559Z,63.70
2018-06-23T07:51:30.841Z,61.80
2018-06-23T07:53:58.155Z,62.30
2018-06-23T07:56:25.501Z,62.80
2018-06-23T07:58:52.786Z,63.20
2018-06-23T08:01:20.108Z,63.20
2018-06-23T08:03:47.427Z,62.90
2018-06-23T08:06:14.751Z,62.80
2018-06-23T08:08:42.068Z,62.30
2018-06-23T08:11:09.507Z,62.20
2018-06-23T08:13:36.798Z,62.90
2018-06-23T08:16:04.772Z,61.90
2018-06-23T08:18:32.180Z,61.10
2018-06-23T08:20:59.446Z,61.20
2018-06-23T08:23:26.796Z,60.90
2018-06-23T08:25:54.087Z,60.00
2018-06-23T08:28:21.398Z,58.60
2018-06-23T08:30:48.785Z,58.20
2018-06-23T08:33:16.066Z,58.70
2018-06-23T08:35:43.369Z,59.00
2018-06-23T08:38:10.704Z,59.80
2018-06-23T08:40:38.035Z,60.00
2018-06-23T08:43:05.344Z,59.20
2018-06-23T08:45:32.669Z,59.00
2018-06-23T08:47:59.998Z,58.30
2018-06-23T08:50:27.333Z,57.90
2018-06-23T08:52:54.703Z,57.90
2018-06-23T08:55:22.026Z,58.10
2018-06-23T08:57:49.432Z,58.30
2018-06-23T09:00:16.843Z,58.70
2018-06-23T09:02:44.211Z,59.90
2018-06-23T09:05:11.552Z,60.80
2018-06-23T09:07:38.874Z,61.00
2018-06-23T09:10:06.164Z,61.10
2018-06-23T09:12:33.457Z,60.50
2018-06-23T09:15:00.757Z,60.60
2018-06-23T09:19:55.291Z,60.20
2018-06-23T09:22:22.628Z,59.80
2018-06-23T09:24:50.039Z,59.80
2018-06-23T09:27:18.280Z,60.10
2018-06-23T09:29:45.670Z,60.10
2018-06-23T09:32:13.142Z,59.90
2018-06-23T09:34:40.409Z,60.30
2018-06-23T09:37:07.693Z,60.40
2018-06-23T09:39:34.994Z,60.20
2018-06-23T09:42:02.315Z,60.00
2018-06-23T09:44:29.650Z,59.90
2018-06-23T09:46:56.958Z,59.50
2018-06-23T09:49:24.290Z,59.20
2018-06-23T09:51:51.614Z,59.90
2018-06-23T09:54:19.025Z,60.10
2018-06-23T09:56:46.353Z,60.50
2018-06-23T10:01:40.865Z,59.60
2018-06-23T10:04:08.169Z,59.30
2018-06-23T10:06:35.509Z,59.80
2018-06-23T10:09:05.072Z,59.90
2018-06-23T10:11:32.379Z,60.40
2018-06-23T10:13:59.754Z,60.30
2018-06-23T10:16:27.071Z,59.80
2018-06-23T10:18:54.474Z,60.50
2018-06-23T10:21:22.017Z,60.50
2018-06-23T10:23:49.423Z,59.90
2018-06-23T10:26:16.729Z,59.80
2018-06-23T10:28:44.089Z,60.00
2018-06-23T10:31:11.388Z,60.10
2018-06-23T10:33:38.684Z,60.20
2018-06-23T10:36:05.976Z,60.40
2018-06-23T10:38:33.346Z,59.80
2018-06-23T10:41:00.742Z,60.00
2018-06-23T10:43:28.511Z,61.20
2018-06-23T10:45:55.804Z,61.70
2018-06-23T10:48:23.164Z,62.50
2018-06-23T10:50:50.475Z,61.90
2018-06-23T10:53:17.822Z,61.30
2018-06-23T10:55:45.156Z,61.50
2018-06-23T10:58:12.483Z,61.90
2018-06-23T11:00:39.899Z,61.80
2018-06-23T11:03:07.228Z,61.80
2018-06-23T11:05:34.555Z,62.00
2018-06-23T11:08:01.923Z,61.70
2018-06-23T11:10:29.277Z,62.50
2018-06-23T11:12:56.593Z,62.90
2018-06-23T11:15:23.964Z,61.90
2018-06-23T11:17:51.404Z,61.50
2018-06-23T11:20:18.706Z,61.10
2018-06-23T11:22:46.036Z,60.40
2018-06-23T11:25:13.310Z,60.10
2018-06-23T11:27:40.698Z,60.30
2018-06-23T11:30:08.019Z,58.90
2018-06-23T11:32:35.358Z,59.10
2018-06-23T11:35:02.747Z,59.80
2018-06-23T11:37:30.149Z,60.00
2018-06-23T11:39:57.495Z,61.30
2018-06-23T11:42:24.836Z,61.10
2018-06-23T11:44:52.145Z,60.80
2018-06-23T11:47:19.511Z,60.70
2018-06-23T11:49:46.841Z,60.50
2018-06-23T11:52:14.181Z,60.10
2018-06-23T11:54:41.456Z,58.40
2018-06-23T11:57:08.807Z,58.30
2018-06-23T11:59:36.208Z,58.60
2018-06-23T12:02:03.532Z,58.90
2018-06-23T12:04:30.866Z,59.50
2018-06-23T12:06:58.211Z,60.30
2018-06-23T12:09:25.498Z,61.30
2018-06-23T12:11:52.816Z,60.80
2018-06-23T12:14:20.147Z,60.40
2018-06-23T12:16:47.461Z,60.40
2018-06-23T12:19:14.784Z,61.60
2018-06-23T12:21:42.150Z,62.60
2018-06-23T12:24:09.495Z,62.20
2018-06-23T12:26:36.870Z,62.70
2018-06-23T12:29:04.203Z,62.90
2018-06-23T12:31:31.559Z,63.40
2018-06-23T12:33:59.027Z,63.00
2018-06-23T12:36:26.565Z,63.70
2018-06-23T12:38:53.863Z,63.80
2018-06-23T12:41:21.305Z,63.70
2018-06-23T12:43:48.607Z,63.50
2018-06-23T12:46:15.920Z,62.70
2018-06-23T12:51:10.474Z,64.00
2018-06-23T12:53:37.841Z,64.80
2018-06-23T12:56:05.197Z,65.40
2018-06-23T13:00:59.781Z,63.90
2018-06-23T13:03:27.088Z,62.70
2018-06-23T13:05:54.463Z,61.80
2018-06-23T13:10:48.966Z,59.90
2018-06-23T13:13:16.314Z,59.40
2018-06-23T13:15:43.728Z,60.50
2018-06-23T13:18:11.121Z,60.50
2018-06-23T13:20:38.505Z,60.10
2018-06-23T13:23:05.801Z,61.70
2018-06-23T13:25:33.157Z,62.00
2018-06-23T13:28:00.544Z,61.40
2018-06-23T13:30:27.968Z,60.60
2018-06-23T13:32:55.238Z,60.10
2018-06-23T13:35:22.554Z,61.20
2018-06-23T13:37:49.859Z,61.60
2018-06-23T13:40:17.174Z,62.00
2018-06-23T13:42:44.482Z,62.50
2018-06-23T13:45:11.772Z,62.00
2018-06-23T13:47:39.105Z,62.20
2018-06-23T13:50:06.435Z,62.20
2018-06-23T13:52:33.768Z,61.60
2018-06-23T13:55:01.067Z,61.60
2018-06-23T13:57:28.443Z,62.10
2018-06-23T13:59:55.849Z,62.40
2018-06-23T14:02:23.183Z,62.30
2018-06-23T14:04:50.512Z,62.10
2018-06-23T14:07:17.954Z,61.40
2018-06-23T14:09:45.244Z,61.40
2018-06-23T14:12:12.553Z,62.00
2018-06-23T14:14:39.865Z,62.00
2018-06-23T14:17:07.171Z,61.90
2018-06-23T14:19:34.489Z,61.40
2018-06-23T14:22:01.847Z,61.50
2018-06-23T14:24:29.166Z,61.80
2018-06-23T14:26:56.572Z,61.50
2018-06-23T14:29:23.956Z,62.30
2018-06-23T14:31:51.426Z,62.80
2018-06-23T14:34:18.650Z,62.90
2018-06-23T14:36:45.990Z,62.40
2018-06-23T14:39:13.292Z,63.10
2018-06-23T14:41:40.714Z,62.50
2018-06-23T14:44:08.023Z,62.10
2018-06-23T14:46:35.437Z,61.60
2018-06-23T14:49:02.747Z,62.40
2018-06-23T14:51:30.115Z,62.70
2018-06-23T14:53:57.441Z,61.50
2018-06-23T14:56:24.824Z,61.90
2018-06-23T14:58:52.114Z,62.40
2018-06-23T15:01:19.410Z,62.40
2018-06-23T15:03:46.823Z,61.20
2018-06-23T15:06:14.346Z,61.30
2018-06-23T15:08:53.239Z,61.50
2018-06-23T15:11:32.089Z,62.00
2018-06-23T15:13:59.463Z,62.90
2018-06-23T15:16:26.754Z,62.80
2018-06-23T15:18:54.074Z,63.40
2018-06-23T15:21:21.416Z,63.30
2018-06-23T15:23:48.714Z,63.40
2018-06-23T15:26:16.037Z,63.10
2018-06-23T15:28:43.396Z,63.10
2018-06-23T15:31:10.952Z,62.70
2018-06-23T15:33:38.357Z,63.20
2018-06-23T15:36:05.744Z,63.00
2018-06-23T15:38:33.088Z,62.70
2018-06-23T15:41:00.465Z,62.80
2018-06-23T15:43:27.839Z,62.40
2018-06-23T15:45:55.204Z,62.50
2018-06-23T15:48:22.513Z,62.30
2018-06-23T15:50:49.863Z,62.30
2018-06-23T15:53:17.280Z,62.30
2018-06-23T15:55:44.797Z,62.10
2018-06-23T15:58:12.116Z,61.50
2018-06-23T16:00:39.443Z,62.10
2018-06-23T16:05:34.176Z,62.50
2018-06-23T16:08:01.542Z,61.50
2018-06-23T16:10:28.847Z,60.80
2018-06-23T16:12:56.360Z,61.10
2018-06-23T16:15:23.720Z,61.60
2018-06-23T16:17:51.015Z,61.00
2018-06-23T16:20:18.418Z,61.40
2018-06-23T16:22:45.762Z,62.70
2018-06-23T16:25:13.219Z,61.40
2018-06-23T16:27:40.624Z,60.50
2018-06-23T16:30:08.647Z,59.60
2018-06-23T16:32:36.461Z,58.90
2018-06-23T16:35:04.568Z,58.30
2018-06-23T16:37:32.182Z,58.00
2018-06-23T16:40:00.155Z,57.10
2018-06-23T16:42:27.499Z,57.30
2018-06-23T16:44:54.885Z,58.10
2018-06-23T16:47:22.199Z,58.60
2018-06-23T16:49:49.613Z,58.80
2018-06-23T16:52:17.008Z,59.60
2018-06-23T16:54:44.433Z,60.30
2018-06-23T16:57:11.759Z,59.30
2018-06-23T16:59:39.922Z,59.10
2018-06-23T17:02:07.874Z,58.70
2018-06-23T17:04:35.248Z,57.10
2018-06-23T17:07:02.589Z,57.80
2018-06-23T17:09:29.955Z,59.10
2018-06-23T17:11:57.312Z,58.70
2018-06-23T17:14:24.634Z,56.70
2018-06-23T17:16:52.070Z,58.80
2018-06-23T17:21:46.866Z,62.80
2018-06-23T17:24:14.262Z,62.70
2018-06-23T17:26:41.649Z,62.50
2018-06-23T17:29:08.977Z,62.90
2018-06-23T17:31:36.380Z,62.60
2018-06-23T17:34:03.686Z,62.90
2018-06-23T17:36:31.035Z,62.70
2018-06-23T17:38:58.685Z,62.50
2018-06-23T17:41:26.090Z,62.70
2018-06-23T17:43:53.407Z,62.40
2018-06-23T17:46:20.714Z,61.10
2018-06-23T17:48:48.027Z,60.90
2018-06-23T17:51:15.351Z,60.90
2018-06-23T17:53:42.693Z,60.70
2018-06-23T17:56:09.999Z,59.70
2018-06-23T17:58:37.457Z,59.20
2018-06-23T18:03:32.060Z,60.30
2018-06-23T18:05:59.413Z,61.60
2018-06-23T18:08:26.738Z,62.90
2018-06-23T18:10:54.060Z,63.20
2018-06-23T18:13:21.379Z,63.00
2018-06-23T18:15:48.701Z,63.20
2018-06-23T18:18:16.017Z,64.50
2018-06-23T18:20:43.438Z,65.10
2018-06-23T18:23:10.768Z,65.00
2018-06-23T18:25:38.170Z,64.80
2018-06-23T18:28:05.502Z,64.40
2018-06-23T18:30:32.816Z,64.20
2018-06-23T18:33:00.153Z,64.10
2018-06-23T18:35:27.473Z,64.80
2018-06-23T18:37:54.830Z,64.80
2018-06-23T18:40:22.211Z,64.90
2018-06-23T18:42:49.515Z,65.40
2018-06-23T18:45:16.991Z,65.90
2018-06-23T18:47:44.331Z,66.50
2018-06-23T18:50:11.638Z,66.40
2018-06-23T18:52:39.038Z,67.00
2018-06-23T18:55:06.400Z,67.40
2018-06-23T18:57:33.678Z,67.30
2018-06-23T19:02:28.244Z,66.80
2018-06-23T19:04:55.533Z,66.80
2018-06-23T19:07:22.882Z,66.70
2018-06-23T19:09:50.346Z,67.20
2018-06-23T19:12:17.635Z,67.50
2018-06-23T19:14:44.965Z,67.90
2018-06-23T19:17:12.272Z,68.10
2018-06-23T19:19:39.592Z,68.20
2018-06-23T19:24:34.218Z,68.50
2018-06-23T19:27:01.494Z,68.70
2018-06-23T19:29:28.806Z,68.80
2018-06-23T19:31:56.103Z,68.70
2018-06-23T19:34:23.503Z,68.80
2018-06-23T19:36:50.817Z,69.00
2018-06-23T19:39:18.134Z,69.10
2018-06-23T19:44:12.816Z,69.00
2018-06-23T19:46:40.112Z,69.80
2018-06-23T19:49:07.427Z,70.20
2018-06-23T19:51:34.771Z,70.20
2018-06-23T19:54:02.141Z,70.20
2018-06-23T19:56:29.581Z,70.00
2018-06-23T19:58:56.981Z,70.10
2018-06-23T20:01:24.287Z,70.00
2018-06-23T20:03:51.593Z,70.00
2018-06-23T20:06:18.904Z,70.20
2018-06-23T20:08:46.241Z,70.70
2018-06-23T20:11:14.085Z,70.80
2018-06-23T20:13:41.725Z,70.90
2018-06-23T20:16:09.019Z,70.90
2018-06-23T20:18:36.354Z,70.90
2018-06-23T20:21:03.941Z,70.80
2018-06-23T20:23:31.246Z,71.00
2018-06-23T20:25:58.746Z,71.20
2018-06-23T20:28:26.127Z,71.40
2018-06-23T20:30:53.575Z,71.20
2018-06-23T20:33:21.287Z,71.20
2018-06-23T20:35:48.590Z,71.10
2018-06-23T20:38:15.977Z,71.20
2018-06-23T20:40:43.271Z,71.30
2018-06-23T20:43:11.008Z,70.80
2018-06-23T20:45:38.316Z,70.50
2018-06-23T20:48:05.622Z,70.50
2018-06-23T20:50:32.913Z,70.50
2018-06-23T20:53:00.280Z,70.70
2018-06-23T20:55:27.558Z,70.60
2018-06-23T20:57:55.164Z,70.70
2018-06-23T21:00:22.649Z,71.00
2018-06-23T21:02:49.962Z,71.20
2018-06-23T21:05:17.287Z,71.20
2018-06-23T21:07:45.007Z,71.10
2018-06-23T21:10:23.751Z,71.10
2018-06-23T21:12:51.056Z,71.10
2018-06-23T21:15:18.792Z,71.70
2018-06-23T21:17:46.112Z,72.10
2018-06-23T21:20:13.407Z,72.10
2018-06-23T21:22:40.749Z,72.00
2018-06-23T21:25:08.072Z,72.00
2018-06-23T21:27:35.451Z,71.70
2018-06-23T21:30:02.774Z,71.80
2018-06-23T21:32:30.123Z,72.00
2018-06-23T21:34:57.760Z,72.00
2018-06-23T21:37:25.042Z,72.30
2018-06-23T21:39:52.354Z,72.20
2018-06-23T21:42:19.647Z,72.10
2018-06-23T21:44:47.313Z,72.00
2018-06-23T21:47:14.669Z,72.30
2018-06-23T21:49:41.960Z,72.40
2018-06-23T21:52:09.360Z,72.70
2018-06-23T21:54:36.641Z,72.90
2018-06-23T21:57:03.933Z,73.00
2018-06-23T21:59:31.260Z,73.10
2018-06-23T22:01:58.538Z,73.50
2018-06-23T22:04:25.834Z,74.10
2018-06-23T22:06:53.185Z,74.60
2018-06-23T22:09:20.478Z,74.70
2018-06-23T22:11:47.795Z,75.00
2018-06-23T22:14:15.288Z,75.20
2018-06-23T22:19:09.832Z,75.30
2018-06-23T22:21:37.140Z,75.10
2018-06-23T22:24:04.432Z,74.80
2018-06-23T22:26:31.747Z,74.50
2018-06-23T22:28:59.080Z,74.40
2018-06-23T22:31:26.387Z,74.00
2018-06-23T22:33:53.677Z,73.40
2018-06-23T22:36:20.996Z,73.10
2018-06-23T22:38:48.345Z,73.00
2018-06-23T22:41:15.714Z,72.50
2018-06-23T22:43:43.045Z,72.60
2018-06-23T22:46:10.424Z,72.70
2018-06-23T22:48:38.183Z,72.50
2018-06-23T22:51:05.516Z,72.30
2018-06-23T22:53:32.882Z,72.50
2018-06-23T22:56:00.217Z,72.30
2018-06-23T22:58:27.537Z,72.00
2018-06-23T23:00:54.882Z,71.40
2018-06-23T23:03:22.193Z,71.60
2018-06-23T23:05:49.551Z,72.10
2018-06-23T23:08:16.861Z,72.60
2018-06-23T23:10:44.206Z,72.90
2018-06-23T23:13:11.562Z,73.10
2018-06-23T23:15:38.866Z,73.20
2018-06-23T23:18:06.265Z,73.50
2018-06-23T23:20:33.614Z,73.40
2018-06-23T23:25:28.145Z,73.20
2018-06-23T23:27:55.535Z,73.20
2018-06-23T23:30:22.846Z,73.50
2018-06-23T23:32:50.180Z,74.00
2018-06-23T23:35:17.614Z,74.00
2018-06-23T23:37:44.918Z,74.10
2018-06-23T23:40:12.244Z,74.00
2018-06-23T23:42:39.688Z,74.20
2018-06-23T23:45:07.349Z,74.20
2018-06-23T23:47:34.635Z,74.20
2018-06-23T23:50:01.963Z,74.10
2018-06-23T23:52:29.692Z,74.00
2018-06-23T23:54:57.515Z,73.90
2018-06-23T23:57:24.822Z,74.30
2018-06-23T23:59:52.168Z,74.30
